Time;durP1;ratioP1;P1;durP2;ratioP2;P2;SDS_P1;SDS_P2;PMS_P1;PMS_P2;Temp;Humidity;BMP_temperature;BMP_pressure;BME280_temperature;BME280_humidity;BME280_pressure;Samples;Min_cycle;Max_cycle;Signal;HPM_P1;HPM_P2
2023/05/08 00:01:08;;;;;;;3.40;1.67;;;;;;;16.61;56.88;99226.66;4882766;29;20279;-93
2023/05/08 00:03:34;;;;;;;3.37;1.30;;;;;;;16.67;56.60;99228.81;4879066;29;20187;-92
2023/05/08 00:06:03;;;;;;;5.63;1.37;;;;;;;16.69;56.68;99231.38;4864082;29;20628;-92
2023/05/08 00:08:28;;;;;;;10.80;1.60;;;;;;;16.69;57.27;99223.44;4872601;29;20270;-92
2023/05/08 00:10:54;;;;;;;4.33;1.90;;;;;;;16.54;58.18;99220.13;4882256;29;20192;-91
2023/05/08 00:13:19;;;;;;;3.30;1.43;;;;;;;16.45;58.51;99219.00;4866223;29;20188;-92
2023/05/08 00:15:45;;;;;;;6.93;1.33;;;;;;;16.57;57.73;99211.97;4882452;29;20633;-91
2023/05/08 00:18:11;;;;;;;4.40;1.80;;;;;;;16.65;57.31;99224.59;4866077;29;20183;-92
2023/05/08 00:20:36;;;;;;;4.30;1.50;;;;;;;16.58;57.19;99219.81;4874771;29;20560;-91
2023/05/08 00:23:02;;;;;;;5.13;1.53;;;;;;;16.52;57.46;99222.03;4863995;29;20195;-92
2023/05/08 00:25:29;;;;;;;2.97;1.40;;;;;;;16.55;56.98;99227.97;4863667;29;20239;-91
2023/05/08 00:27:56;;;;;;;5.63;1.27;;;;;;;16.56;56.64;99227.00;4861367;29;20212;-91
2023/05/08 00:30:21;;;;;;;6.43;1.40;;;;;;;16.61;56.37;99223.16;4882752;29;20247;-91
2023/05/08 00:32:47;;;;;;;3.50;1.10;;;;;;;16.63;55.95;99222.09;4875489;29;20196;-91
2023/05/08 00:35:12;;;;;;;2.57;1.23;;;;;;;16.57;55.79;99231.34;4863741;29;20513;-91
2023/05/08 00:37:39;;;;;;;3.83;1.53;;;;;;;16.42;56.46;99228.97;4847355;29;20182;-91
2023/05/08 00:40:07;;;;;;;3.20;1.40;;;;;;;16.33;56.43;99222.56;4849022;29;20199;-91
2023/05/08 00:42:32;;;;;;;2.63;1.03;;;;;;;16.31;56.52;99218.34;4882047;29;20211;-91
2023/05/08 00:44:58;;;;;;;2.57;1.30;;;;;;;16.31;55.99;99216.53;4865652;29;20213;-91
2023/05/08 00:47:23;;;;;;;2.80;1.37;;;;;;;16.32;56.23;99217.38;4881839;29;20198;-91
2023/05/08 00:49:49;;;;;;;5.33;1.70;;;;;;;16.30;56.24;99230.72;4865597;29;20194;-92
2023/05/08 00:52:15;;;;;;;2.57;1.57;;;;;;;16.30;56.71;99221.97;4865765;29;20192;-91
2023/05/08 00:54:41;;;;;;;2.80;1.00;;;;;;;16.26;56.45;99223.97;4847128;29;20193;-91
2023/05/08 00:57:07;;;;;;;3.93;1.00;;;;;;;16.23;56.56;99229.50;4847009;29;20187;-91
2023/05/08 00:59:34;;;;;;;2.80;1.50;;;;;;;16.22;56.73;99229.63;4846966;29;20201;-91
2023/05/08 01:02:00;;;;;;;3.97;1.57;;;;;;;16.17;56.88;99235.22;4847024;29;20191;-91
2023/05/08 01:04:27;;;;;;;6.63;1.67;;;;;;;16.21;56.41;99231.41;4846794;29;20266;-92
2023/05/08 01:06:52;;;;;;;3.53;1.60;;;;;;;16.22;56.05;99232.25;4847237;29;20762;-92
2023/05/08 01:09:18;;;;;;;5.13;1.90;;;;;;;16.12;56.58;99240.00;4865035;29;20202;-91
2023/05/08 01:12:02;;;;;;;4.90;1.60;;;;;;;16.05;57.28;99235.28;4865584;29;20189;-92
2023/05/08 01:14:45;;;;;;;2.50;1.30;;;;;;;15.94;57.50;99234.28;4846552;29;20266;-91
2023/05/08 01:17:21;;;;;;;4.17;1.70;;;;;;;15.96;57.21;99236.78;4862920;29;20279;-90
2023/05/08 01:19:59;;;;;;;7.13;2.17;;;;;;;15.98;57.31;99240.19;4846731;29;20186;-91
2023/05/08 01:23:13;;;;;;;5.80;1.80;;;;;;;15.95;56.82;99240.41;4862778;29;20191;-91
2023/05/08 01:26:26;;;;;;;6.63;1.93;;;;;;;15.95;57.19;99240.41;4788293;30;20216;-91
2023/05/08 01:29:10;;;;;;;4.83;1.87;;;;;;;16.01;57.44;99239.13;4825023;29;20673;-91
2023/05/08 01:31:51;;;;;;;3.07;1.33;;;;;;;16.02;57.64;99239.00;4846796;29;20630;-91
2023/05/08 01:34:24;;;;;;;2.43;1.30;;;;;;;15.95;56.89;99240.41;4862697;29;20203;-92
2023/05/08 01:36:58;;;;;;;4.70;1.50;;;;;;;15.93;56.99;99243.16;4846272;29;20189;-92
2023/05/08 01:39:29;;;;;;;5.40;1.80;;;;;;;15.91;57.17;99252.16;4866659;29;20639;-92
2023/05/08 01:42:06;;;;;;;2.07;1.03;;;;;;;15.89;57.22;99251.41;4881543;29;20186;-91
2023/05/08 01:44:37;;;;;;;2.53;1.00;;;;;;;15.87;57.39;99248.91;4864555;29;20636;-91
2023/05/08 01:47:08;;;;;;;3.63;1.40;;;;;;;15.82;56.96;99250.19;4878814;29;20302;-92
2023/05/08 01:49:40;;;;;;;4.87;1.73;;;;;;;15.75;57.52;99259.47;4846631;29;20627;-92
2023/05/08 01:52:12;;;;;;;15.30;2.20;;;;;;;15.76;57.12;99261.19;4846630;29;20233;-92
2023/05/08 01:54:44;;;;;;;6.97;2.03;;;;;;;15.73;56.98;99254.31;4846383;29;20184;-92
2023/05/08 01:57:11;;;;;;;6.93;1.70;;;;;;;15.68;58.11;99258.25;4846459;29;20284;-91
2023/05/08 01:59:38;;;;;;;6.23;1.80;;;;;;;15.65;58.07;99264.59;4862145;29;20178;-92
2023/05/08 02:02:05;;;;;;;4.00;1.30;;;;;;;15.70;57.93;99258.97;4862144;29;20665;-92
2023/05/08 02:04:33;;;;;;;3.03;1.40;;;;;;;15.73;57.55;99258.75;4845825;29;20193;-92
2023/05/08 02:07:00;;;;;;;3.30;1.37;;;;;;;15.75;57.30;99264.78;4850742;29;20265;-92
2023/05/08 02:09:28;;;;;;;2.33;1.17;;;;;;;15.78;56.04;99270.69;4864013;29;20594;-92
2023/05/08 02:11:54;;;;;;;3.30;1.47;;;;;;;15.69;55.94;99252.03;4880566;29;20215;-92
2023/05/08 02:14:21;;;;;;;2.43;1.33;;;;;;;15.57;55.71;99247.59;4864365;29;20193;-92
2023/05/08 02:16:49;;;;;;;4.27;1.70;;;;;;;15.48;56.00;99248.25;4859676;29;20285;-92
2023/05/08 02:19:16;;;;;;;3.13;1.50;;;;;;;15.47;55.91;99243.91;4845238;29;20182;-91
2023/05/08 02:21:44;;;;;;;3.03;1.50;;;;;;;15.44;56.24;99250.22;4845690;29;20192;-92
2023/05/08 02:24:13;;;;;;;3.73;1.20;;;;;;;15.45;56.27;99249.28;4845278;29;20557;-92
2023/05/08 02:26:41;;;;;;;3.00;1.40;;;;;;;15.48;56.10;99256.19;4867749;29;20278;-92
2023/05/08 02:29:08;;;;;;;3.13;1.50;;;;;;;15.45;56.00;99251.09;4859347;29;20328;-92
2023/05/08 02:31:35;;;;;;;3.07;1.40;;;;;;;15.43;55.58;99255.63;4861872;29;20232;-91
2023/05/08 02:34:02;;;;;;;2.30;1.27;;;;;;;15.36;56.21;99248.13;4861519;29;20199;-91
2023/05/08 02:36:29;;;;;;;3.47;1.63;;;;;;;15.27;56.40;99245.31;4861482;29;20181;-92
2023/05/08 02:38:57;;;;;;;3.70;1.30;;;;;;;15.24;56.51;99241.06;4845467;29;20197;-91
2023/05/08 02:41:27;;;;;;;6.10;1.67;;;;;;;15.25;56.46;99242.75;4846387;29;20190;-92
2023/05/08 02:43:53;;;;;;;4.87;1.90;;;;;;;15.26;56.23;99240.97;4845624;29;20188;-92
2023/05/08 02:46:20;;;;;;;3.90;1.50;;;;;;;15.18;56.92;99236.22;4845217;29;20578;-92
2023/05/08 02:49:00;;;;;;;3.93;1.63;;;;;;;15.13;56.85;99237.47;4858809;29;20209;-92
2023/05/08 02:51:47;;;;;;;4.20;1.87;;;;;;;15.14;56.91;99237.41;4864444;29;20204;-92
2023/05/08 02:54:31;;;;;;;4.07;1.60;;;;;;;15.10;57.21;99241.19;4863779;29;20185;-91
2023/05/08 02:57:16;;;;;;;3.33;1.60;;;;;;;15.02;58.02;99247.94;4863633;29;20173;-92
2023/05/08 02:59:45;;;;;;;5.30;1.70;;;;;;;15.00;58.13;99248.06;4863417;29;20191;-92
2023/05/08 03:02:23;;;;;;;3.10;1.57;;;;;;;15.00;58.21;99255.13;4854137;29;20263;-92
2023/05/08 03:04:58;;;;;;;4.10;1.87;;;;;;;14.94;58.52;99253.75;4861509;29;20178;-92
2023/05/08 03:07:26;;;;;;;2.93;1.90;;;;;;;14.99;58.45;99258.72;4845608;29;20189;-92
2023/05/08 03:10:00;;;;;;;4.67;2.43;;;;;;;15.00;58.30;99261.25;4844899;29;20185;-92
2023/05/08 03:12:27;;;;;;;5.17;2.37;;;;;;;15.02;57.84;99261.97;4845048;29;20263;-91
2023/05/08 03:15:03;;;;;;;8.10;1.83;;;;;;;14.99;57.78;99256.09;4861402;29;20199;-92
2023/05/08 03:17:32;;;;;;;2.70;1.73;;;;;;;15.02;57.93;99261.13;4844864;29;20544;-92
2023/05/08 03:20:02;;;;;;;4.50;2.10;;;;;;;15.06;57.60;99260.84;4861009;29;20181;-91
2023/05/08 03:22:31;;;;;;;4.33;2.33;;;;;;;15.01;57.51;99262.09;4876258;29;20181;-92
2023/05/08 03:25:01;;;;;;;4.87;2.30;;;;;;;14.93;58.41;99269.69;4845395;29;20236;-92
2023/05/08 03:27:28;;;;;;;5.23;2.60;;;;;;;14.94;58.22;99266.09;4861477;29;20189;-92
2023/05/08 03:29:56;;;;;;;4.47;1.87;;;;;;;14.94;58.29;99277.50;4844737;29;20185;-92
2023/05/08 03:32:25;;;;;;;6.10;1.97;;;;;;;14.98;58.41;99278.16;4846363;29;20278;-92
2023/05/08 03:34:50;;;;;;;4.77;2.10;;;;;;;14.97;58.31;99276.44;4848383;29;20235;-92
2023/05/08 03:37:17;;;;;;;7.03;1.80;;;;;;;14.94;58.68;99277.50;4865043;29;20181;-91
2023/05/08 03:39:42;;;;;;;3.13;1.80;;;;;;;14.92;58.98;99282.03;4873432;29;20222;-92
2023/05/08 03:42:08;;;;;;;6.27;2.37;;;;;;;14.88;59.78;99277.94;4848804;29;20635;-92
2023/05/08 03:44:35;;;;;;;6.87;2.13;;;;;;;14.88;59.57;99285.00;4854632;29;20194;-92
2023/05/08 03:47:02;;;;;;;12.50;4.47;;;;;;;14.86;60.01;99281.63;4882923;29;20197;-92
2023/05/08 03:49:29;;;;;;;4.20;2.20;;;;;;;14.82;60.89;99288.91;4866367;29;20776;-91
2023/05/08 03:51:55;;;;;;;4.07;2.17;;;;;;;14.86;61.08;99279.00;4883327;29;20264;-92
2023/05/08 03:54:24;;;;;;;4.33;1.93;;;;;;;14.89;61.25;99282.25;4866984;29;20184;-91
2023/05/08 03:56:51;;;;;;;7.20;2.70;;;;;;;14.92;61.01;99284.69;4866627;29;20200;-92
2023/05/08 03:59:29;;;;;;;3.93;1.57;;;;;;;14.96;61.20;99295.88;4866771;29;20179;-92
2023/05/08 04:02:03;;;;;;;4.30;2.20;;;;;;;14.99;61.26;99296.50;4864437;29;20236;-90
2023/05/08 04:04:36;;;;;;;5.43;2.50;;;;;;;15.03;61.31;99290.09;4848168;29;20236;-91
2023/05/08 04:07:11;;;;;;;12.90;2.97;;;;;;;15.06;61.51;99292.53;4864449;29;20511;-92
2023/05/08 04:09:48;;;;;;;8.77;2.50;;;;;;;15.06;61.92;99295.16;4864288;29;20636;-91
2023/05/08 04:12:21;;;;;;;7.40;3.20;;;;;;;15.13;62.09;99287.66;4864651;29;20177;-91
2023/05/08 04:14:52;;;;;;;5.53;2.63;;;;;;;15.21;61.68;99291.47;4864112;29;20181;-91
2023/05/08 04:17:28;;;;;;;5.37;2.37;;;;;;;15.28;61.12;99302.44;4847651;29;20182;-90
2023/05/08 04:19:59;;;;;;;3.47;2.47;;;;;;;15.20;60.90;99299.47;4847515;29;20201;-92
2023/05/08 04:22:26;;;;;;;5.50;2.13;;;;;;;15.33;60.95;99290.59;4863776;29;20185;-92
2023/05/08 04:24:54;;;;;;;3.60;1.80;;;;;;;15.49;60.79;99300.16;4847626;29;20194;-91
2023/05/08 04:27:20;;;;;;;4.90;2.10;;;;;;;15.62;60.38;99290.38;4847920;29;20652;-92
2023/05/08 04:29:46;;;;;;;5.70;2.10;;;;;;;15.78;60.19;99301.56;4847764;29;20187;-92
2023/05/08 04:32:13;;;;;;;3.50;1.70;;;;;;;15.98;59.75;99298.38;4847326;29;20193;-91
2023/05/08 04:34:38;;;;;;;3.83;2.30;;;;;;;16.22;59.31;99296.56;4863669;29;20634;-91
2023/05/08 04:37:06;;;;;;;3.80;2.60;;;;;;;16.36;58.35;99298.19;4847456;29;20308;-92
2023/05/08 04:39:31;;;;;;;4.30;2.23;;;;;;;16.38;57.95;99297.13;4863336;29;20178;-92
2023/05/08 04:42:01;;;;;;;6.53;2.20;;;;;;;16.47;58.64;99298.25;4846960;29;20199;-92
2023/05/08 04:44:28;;;;;;;4.43;2.17;;;;;;;16.40;57.98;99299.69;4847028;29;20198;-92
2023/05/08 04:46:53;;;;;;;7.50;2.97;;;;;;;16.44;58.80;99294.03;4863649;29;20196;-92
2023/05/08 04:49:18;;;;;;;4.93;2.23;;;;;;;16.71;57.42;99292.97;4857091;29;20526;-92
2023/05/08 04:51:44;;;;;;;11.23;2.27;;;;;;;16.88;57.71;99290.72;4866386;29;20187;-91
2023/05/08 04:54:09;;;;;;;4.30;2.03;;;;;;;17.13;55.99;99285.28;4865556;29;20188;-92
2023/05/08 04:56:35;;;;;;;6.23;2.23;;;;;;;17.58;53.98;99280.84;4865409;29;20270;-92
2023/05/08 04:59:00;;;;;;;3.80;2.20;;;;;;;17.83;53.42;99278.91;4865485;29;20250;-92
2023/05/08 05:01:26;;;;;;;4.00;1.90;;;;;;;18.27;52.64;99281.47;4865557;29;20199;-92
2023/05/08 05:03:51;;;;;;;5.03;1.90;;;;;;;18.78;51.77;99279.84;4865989;29;20188;-93
2023/05/08 05:06:16;;;;;;;5.80;2.00;;;;;;;19.42;48.95;99269.06;4865285;29;20188;-93
2023/05/08 05:08:42;;;;;;;5.13;1.93;;;;;;;19.87;47.45;99274.84;4865476;29;20207;-93
2023/05/08 05:11:07;;;;;;;4.90;2.63;;;;;;;20.50;46.31;99265.59;4882011;29;20176;-93
2023/05/08 05:13:33;;;;;;;5.03;2.20;;;;;;;21.08;44.61;99256.59;4865406;29;20190;-93
2023/05/08 05:15:58;;;;;;;6.60;1.90;;;;;;;21.56;42.99;99264.47;4852807;29;20206;-93
2023/05/08 05:18:24;;;;;;;3.00;1.63;;;;;;;22.30;40.34;99261.69;4863149;29;20176;-92
2023/05/08 05:20:49;;;;;;;4.17;1.77;;;;;;;22.69;39.92;99267.59;4863859;29;20184;-93
2023/05/08 05:23:15;;;;;;;3.77;1.63;;;;;;;22.81;38.86;99269.88;4862968;29;20259;-92
2023/05/08 05:25:41;;;;;;;4.90;1.93;;;;;;;23.27;39.57;99273.22;4846600;29;20196;-92
2023/05/08 05:28:06;;;;;;;3.10;1.70;;;;;;;23.45;38.65;99260.66;4863036;29;20204;-93
2023/05/08 05:30:32;;;;;;;5.33;1.57;;;;;;;23.62;36.98;99271.28;4867048;29;20180;-93
2023/05/08 05:32:57;;;;;;;4.23;1.60;;;;;;;23.90;36.80;99269.19;4881246;29;20184;-92
2023/05/08 05:35:23;;;;;;;4.10;1.87;;;;;;;24.23;36.31;99268.34;4881232;29;20183;-92
2023/05/08 05:37:48;;;;;;;5.37;2.03;;;;;;;24.41;36.80;99269.06;4864887;29;20172;-92
2023/05/08 05:40:14;;;;;;;3.50;1.67;;;;;;;24.64;36.13;99266.56;4880892;29;20202;-93
2023/05/08 05:42:39;;;;;;;10.33;2.00;;;;;;;24.68;35.51;99259.03;4881142;29;20220;-92
2023/05/08 05:45:05;;;;;;;4.00;2.17;;;;;;;23.89;36.60;99262.19;4849143;29;20264;-92
2023/05/08 05:47:31;;;;;;;11.70;2.37;;;;;;;23.93;37.36;99270.72;4845891;29;20196;-92
2023/05/08 05:49:57;;;;;;;4.77;1.67;;;;;;;24.08;36.44;99271.78;4846067;29;20271;-92
2023/05/08 05:52:23;;;;;;;8.20;1.53;;;;;;;24.01;36.82;99271.59;4862165;29;20191;-92
2023/05/08 05:54:48;;;;;;;4.27;1.60;;;;;;;24.03;35.93;99269.59;4845160;29;20188;-92
2023/05/08 05:57:14;;;;;;;2.70;1.20;;;;;;;23.99;36.63;99268.25;4861985;29;20192;-92
2023/05/08 05:59:40;;;;;;;3.17;1.70;;;;;;;23.87;37.26;99274.06;4862045;29;20173;-92
2023/05/08 06:02:07;;;;;;;3.10;1.43;;;;;;;24.26;37.26;99259.16;4846131;29;20659;-92
2023/05/08 06:04:32;;;;;;;3.23;1.33;;;;;;;24.51;35.84;99258.19;4862156;29;20191;-92
2023/05/08 06:06:58;;;;;;;6.37;1.93;;;;;;;24.80;36.22;99258.56;4845972;29;20188;-92
2023/05/08 06:09:23;;;;;;;5.23;1.63;;;;;;;25.03;35.45;99256.03;4845883;29;20212;-93
2023/05/08 06:11:49;;;;;;;2.67;1.40;;;;;;;24.99;36.67;99258.22;4845780;29;20288;-92
2023/05/08 06:14:14;;;;;;;6.87;1.73;;;;;;;24.70;36.80;99252.50;4845712;29;20204;-93
2023/05/08 06:16:40;;;;;;;4.10;1.60;;;;;;;24.40;37.96;99248.63;4845784;29;20187;-93
2023/05/08 06:19:06;;;;;;;2.87;1.07;;;;;;;24.24;38.83;99245.09;4862311;29;20180;-93
2023/05/08 06:21:32;;;;;;;6.67;2.30;;;;;;;24.40;37.61;99242.41;4861936;29;20249;-94
2023/05/08 06:23:58;;;;;;;3.27;1.87;;;;;;;24.38;39.04;99247.09;4866406;29;20180;-93
2023/05/08 06:26:23;;;;;;;7.07;1.60;;;;;;;24.23;39.52;99238.03;4864050;29;20192;-93
2023/05/08 06:28:48;;;;;;;5.47;1.30;;;;;;;24.30;39.79;99236.38;4880265;29;20290;-93
2023/05/08 06:31:14;;;;;;;3.23;1.53;;;;;;;24.49;37.60;99240.59;4880327;29;20250;-93
2023/05/08 06:33:39;;;;;;;5.93;2.50;;;;;;;24.55;38.60;99235.41;4880874;29;20188;-93
2023/05/08 06:36:05;;;;;;;3.53;1.73;;;;;;;24.70;39.70;99235.56;4863898;29;20188;-93
2023/05/08 06:38:31;;;;;;;9.67;2.57;;;;;;;24.76;39.15;99234.91;4864563;29;20180;-93
2023/05/08 06:40:56;;;;;;;3.87;1.83;;;;;;;24.88;38.27;99234.44;4860510;29;20682;-94
2023/05/08 06:43:22;;;;;;;7.03;1.50;;;;;;;25.02;37.13;99233.75;4845538;29;20188;-94
2023/05/08 06:45:47;;;;;;;3.53;1.43;;;;;;;24.99;38.06;99231.41;4845211;29;20271;-94
2023/05/08 06:48:13;;;;;;;2.87;1.57;;;;;;;25.07;37.95;99227.88;4845480;29;20681;-94
2023/05/08 06:50:39;;;;;;;6.80;1.70;;;;;;;25.10;37.20;99226.69;4845518;29;20256;-93
2023/05/08 06:53:05;;;;;;;3.37;1.70;;;;;;;25.14;38.00;99228.00;4845445;29;20181;-93
2023/05/08 06:55:32;;;;;;;2.23;1.20;;;;;;;25.26;37.51;99221.31;4860874;29;20192;-94
2023/05/08 06:57:57;;;;;;;2.77;1.20;;;;;;;25.20;36.70;99224.66;4845269;29;20177;-94
2023/05/08 07:00:23;;;;;;;3.10;1.33;;;;;;;25.03;37.50;99227.38;4845317;29;20206;-92
2023/05/08 07:02:48;;;;;;;3.60;1.80;;;;;;;25.25;39.27;99227.66;4861696;29;20180;-93
2023/05/08 07:05:14;;;;;;;6.20;2.43;;;;;;;25.64;37.90;99226.72;4845109;29;20184;-93
2023/05/08 07:07:41;;;;;;;6.53;3.00;;;;;;;25.56;35.93;99223.25;4860622;29;20192;-94
2023/05/08 07:10:07;;;;;;;8.70;2.33;;;;;;;25.90;36.88;99234.50;4845245;29;20180;-94
2023/05/08 07:12:32;;;;;;;4.47;2.37;;;;;;;26.09;36.06;99223.31;4845154;29;20196;-94
2023/05/08 07:14:58;;;;;;;8.00;2.90;;;;;;;26.42;35.56;99225.81;4845618;29;20218;-94
2023/05/08 07:17:23;;;;;;;5.80;2.30;;;;;;;26.63;35.49;99212.53;4863628;29;20634;-95
2023/05/08 07:19:50;;;;;;;2.77;1.20;;;;;;;26.54;33.91;99219.03;4863833;29;20184;-94
2023/05/08 07:22:16;;;;;;;5.20;1.50;;;;;;;26.52;34.70;99208.44;4863646;29;20179;-95
2023/05/08 07:24:41;;;;;;;4.50;1.70;;;;;;;26.49;33.97;99206.13;4851672;29;20185;-95
2023/05/08 07:27:07;;;;;;;4.17;1.60;;;;;;;26.21;35.25;99202.28;4845088;29;20191;-94
2023/05/08 07:29:34;;;;;;;4.67;1.93;;;;;;;26.33;34.17;99208.09;4844951;29;20682;-94
2023/05/08 07:32:00;;;;;;;4.87;1.90;;;;;;;26.31;35.85;99207.44;4856770;29;20682;-94
2023/05/08 07:34:26;;;;;;;4.97;1.70;;;;;;;26.26;35.34;99209.81;4863425;29;20211;-94
2023/05/08 07:36:51;;;;;;;2.90;1.30;;;;;;;26.53;35.88;99201.19;4863518;29;20221;-95
2023/05/08 07:39:17;;;;;;;9.23;1.43;;;;;;;26.63;35.70;99212.53;4863460;29;20183;-95
2023/05/08 07:41:42;;;;;;;3.97;1.60;;;;;;;26.92;36.01;99206.44;4863302;29;20187;-94
2023/05/08 07:44:08;;;;;;;4.50;1.40;;;;;;;27.23;35.34;99213.34;4863536;29;20199;-95
2023/05/08 07:46:33;;;;;;;3.38;1.50;;;;;;;27.22;35.81;99206.31;4862282;29;20294;-95
2023/05/08 07:48:59;;;;;;;2.63;1.30;;;;;;;27.19;34.54;99198.59;4845378;29;20689;-94
2023/05/08 07:51:25;;;;;;;5.53;1.83;;;;;;;27.38;35.11;99192.63;4844944;29;20204;-95
2023/05/08 07:53:51;;;;;;;7.60;1.50;;;;;;;27.24;33.86;99201.56;4844947;29;20655;-95
2023/05/08 07:56:16;;;;;;;5.20;1.55;;;;;;;27.29;33.79;99196.47;4845097;29;20185;-96
2023/05/08 07:58:44;;;;;;;4.10;1.80;;;;;;;27.03;34.29;99204.16;4844954;29;20195;-95
2023/05/08 08:01:10;;;;;;;3.35;1.33;;;;;;;26.77;35.82;99203.72;4857071;29;20184;-94
2023/05/08 08:03:36;;;;;;;6.00;1.30;;;;;;;26.56;36.84;99192.78;4863241;29;20195;-94
2023/05/08 08:06:01;;;;;;;4.25;1.50;;;;;;;26.40;35.87;99190.22;4863120;29;20191;-94
2023/05/08 08:08:27;;;;;;;6.80;1.70;;;;;;;26.27;36.23;99185.44;4863197;29;20207;-95
2023/05/08 08:10:52;;;;;;;3.67;1.83;;;;;;;26.54;37.72;99192.13;4863273;29;20194;-94
2023/05/08 08:13:18;;;;;;;4.82;1.45;;;;;;;26.76;36.55;99185.88;4863366;29;20187;-95
2023/05/08 08:15:43;;;;;;;4.75;1.85;;;;;;;26.97;35.51;99188.72;4845724;29;20193;-95
2023/05/08 08:18:09;;;;;;;2.70;1.10;;;;;;;27.16;35.17;99187.34;4846225;29;20188;-95
2023/05/08 08:20:34;;;;;;;3.85;2.00;;;;;;;27.42;34.63;99185.91;4848551;29;20200;-95
2023/05/08 08:23:00;;;;;;;3.05;1.52;;;;;;;27.46;34.67;99182.84;4848001;29;20219;-95
2023/05/08 08:25:26;;;;;;;5.63;2.05;;;;;;;27.50;34.29;99179.59;4848698;29;20275;-95
2023/05/08 08:27:52;;;;;;;5.57;2.03;;;;;;;27.55;33.35;99174.47;4848099;29;20247;-95
2023/05/08 08:30:17;;;;;;;4.95;2.10;;;;;;;27.53;35.11;99178.38;4865210;29;20211;-94
2023/05/08 08:32:43;;;;;;;5.88;2.20;;;;;;;27.53;35.01;99178.38;4866416;29;20179;-96
2023/05/08 08:35:08;;;;;;;4.40;1.70;;;;;;;27.72;34.33;99172.41;4848126;29;20553;-96
2023/05/08 08:37:34;;;;;;;5.80;1.65;;;;;;;27.69;34.58;99167.41;4847698;29;20227;-95
2023/05/08 08:40:00;;;;;;;3.85;1.60;;;;;;;27.51;35.06;99169.66;4847731;29;20176;-95
2023/05/08 08:42:26;;;;;;;4.38;1.70;;;;;;;27.48;35.03;99165.50;4847949;29;20212;-95
2023/05/08 08:44:51;;;;;;;2.92;1.52;;;;;;;27.38;35.33;99159.53;4847729;29;20187;-95
2023/05/08 08:47:21;;;;;;;4.80;1.63;;;;;;;27.47;35.69;99158.41;4847517;29;20200;-95
2023/05/08 08:49:48;;;;;;;3.97;1.75;;;;;;;27.61;35.74;99151.34;4847281;29;20208;-95
2023/05/08 08:52:32;;;;;;;5.85;1.35;;;;;;;27.80;35.95;99153.44;4847403;29;20184;-95
2023/05/08 08:55:01;;;;;;;2.83;1.25;;;;;;;28.02;35.53;99142.53;4847474;29;20212;-95
2023/05/08 08:57:31;;;;;;;6.82;1.80;;;;;;;28.40;35.46;99136.88;4847355;29;20208;-95
2023/05/08 09:00:02;;;;;;;3.72;1.65;;;;;;;28.64;34.76;99136.50;4850576;29;20622;-94
2023/05/08 09:02:30;;;;;;;3.88;1.58;;;;;;;28.72;33.91;99138.22;4855255;29;20722;-94
2023/05/08 09:04:56;;;;;;;3.28;1.60;;;;;;;28.56;33.96;99134.72;4862457;29;20659;-94
2023/05/08 09:07:23;;;;;;;3.22;1.55;;;;;;;28.73;33.77;99134.47;4863777;29;20192;-95
2023/05/08 09:09:49;;;;;;;5.25;1.42;;;;;;;28.83;33.96;99134.97;4847038;29;20663;-95
2023/05/08 09:12:15;;;;;;;2.97;1.50;;;;;;;28.57;33.75;99133.72;4848394;29;20212;-95
2023/05/08 09:14:40;;;;;;;4.40;1.60;;;;;;;28.66;33.50;99133.59;4865560;29;20291;-93
2023/05/08 09:17:06;;;;;;;3.35;1.70;;;;;;;28.72;34.48;99124.72;4882241;29;20235;-95
2023/05/08 09:19:32;;;;;;;8.25;1.55;;;;;;;28.76;34.14;99123.28;4882029;29;20263;-95
2023/05/08 09:22:03;;;;;;;4.00;1.90;;;;;;;28.97;32.51;99120.53;4865440;29;20214;-95
2023/05/08 09:24:55;;;;;;;3.42;1.33;;;;;;;28.79;32.97;99125.59;4865334;29;20188;-95
2023/05/08 09:27:25;;;;;;;3.47;1.70;;;;;;;28.81;34.58;99118.13;4862233;29;20184;-95
2023/05/08 09:30:02;;;;;;;4.50;1.30;;;;;;;29.09;35.38;99110.84;4846728;29;20209;-94
2023/05/08 09:32:31;;;;;;;4.70;1.50;;;;;;;28.83;34.80;99110.66;4846754;29;20168;-95
2023/05/08 09:34:57;;;;;;;4.43;2.20;;;;;;;29.00;34.10;99112.03;4846630;29;20647;-95
2023/05/08 09:37:24;;;;;;;3.30;1.50;;;;;;;29.03;34.13;99112.50;4846655;29;20191;-95
2023/05/08 09:39:50;;;;;;;3.42;1.63;;;;;;;29.01;34.57;99105.63;4846614;29;20186;-94
2023/05/08 09:42:15;;;;;;;3.80;1.42;;;;;;;29.13;33.49;99106.72;4846495;29;20267;-95
2023/05/08 09:44:48;;;;;;;2.88;1.60;;;;;;;29.18;33.29;99101.56;4846581;29;20220;-95
2023/05/08 09:47:22;;;;;;;5.45;1.15;;;;;;;29.08;33.93;99106.50;4846412;29;20296;-95
2023/05/08 09:49:58;;;;;;;3.30;1.38;;;;;;;28.85;33.33;99097.84;4864040;29;20199;-94
2023/05/08 09:52:23;;;;;;;3.85;1.60;;;;;;;28.78;33.92;99100.47;4865825;29;20183;-96
2023/05/08 09:54:58;;;;;;;4.47;2.05;;;;;;;28.86;34.69;99096.78;4864736;29;20686;-94
2023/05/08 09:57:24;;;;;;;3.08;1.65;;;;;;;29.01;35.08;99095.63;4864511;29;20529;-95
2023/05/08 09:59:49;;;;;;;3.05;1.63;;;;;;;28.92;33.29;99098.72;4864358;29;20521;-95
2023/05/08 10:02:16;;;;;;;3.45;1.23;;;;;;;28.79;34.48;99085.97;4860766;29;20188;-94
2023/05/08 10:04:41;;;;;;;2.63;1.20;;;;;;;28.79;34.47;99080.56;4858473;29;20282;-95
2023/05/08 10:07:07;;;;;;;2.20;1.30;;;;;;;28.86;34.38;99083.28;4860306;29;20327;-95
2023/05/08 10:09:33;;;;;;;6.55;1.90;;;;;;;28.93;34.20;99076.09;4864149;29;20191;-95
2023/05/08 10:11:58;;;;;;;7.57;1.80;;;;;;;28.96;33.41;99065.72;4864398;29;20194;-95
2023/05/08 10:14:27;;;;;;;4.78;1.83;;;;;;;29.03;33.78;99071.16;4864419;29;20530;-95
2023/05/08 10:16:53;;;;;;;3.83;1.30;;;;;;;29.06;33.95;99081.56;4864498;29;20180;-94
2023/05/08 10:19:22;;;;;;;2.97;1.73;;;;;;;29.00;33.53;99074.25;4864269;29;20590;-94
2023/05/08 10:21:50;;;;;;;4.22;1.83;;;;;;;29.01;33.62;99065.13;4864405;29;20203;-94
2023/05/08 10:24:25;;;;;;;5.50;1.70;;;;;;;29.05;33.49;99069.94;4879710;29;20226;-95
2023/05/08 10:27:00;;;;;;;3.03;1.65;;;;;;;29.17;32.72;99062.06;4845888;29;20168;-96
2023/05/08 10:29:40;;;;;;;6.78;1.85;;;;;;;29.27;34.73;99061.75;4846393;29;20602;-95
2023/05/08 10:32:09;;;;;;;5.75;1.88;;;;;;;29.17;32.46;99051.28;4845846;29;20182;-94
2023/05/08 10:34:39;;;;;;;3.38;1.20;;;;;;;28.97;33.44;99055.75;4845689;29;20184;-94
2023/05/08 10:37:10;;;;;;;2.40;1.20;;;;;;;29.10;33.30;99051.25;4845675;29;20169;-94
2023/05/08 10:39:36;;;;;;;3.55;1.30;;;;;;;29.32;34.15;99043.06;4845729;29;20168;-94
2023/05/08 10:42:02;;;;;;;2.55;1.30;;;;;;;29.58;32.88;99041.28;4845080;29;20208;-94
2023/05/08 10:44:29;;;;;;;2.47;1.27;;;;;;;29.60;31.99;99035.69;4845532;29;20238;-93
2023/05/08 10:47:12;;;;;;;3.22;1.40;;;;;;;29.54;32.88;99029.22;4845000;29;20196;-94
2023/05/08 10:49:59;;;;;;;2.63;1.35;;;;;;;29.74;32.91;99029.28;4861052;29;20520;-94
2023/05/08 10:52:42;;;;;;;4.68;1.02;;;;;;;29.91;32.46;99029.72;4845041;29;20199;-94
2023/05/08 10:55:30;;;;;;;5.15;1.02;;;;;;;30.06;33.12;99016.88;4845358;29;20646;-95
2023/05/08 10:58:29;;;;;;;3.38;1.50;;;;;;;29.74;32.29;99019.28;4857661;29;20176;-94
2023/05/08 11:01:02;;;;;;;4.18;1.20;;;;;;;29.74;32.08;99021.97;4847099;29;20199;-94
2023/05/08 11:03:29;;;;;;;2.47;1.15;;;;;;;29.98;32.36;99017.88;4879413;29;20179;-93
2023/05/08 11:05:56;;;;;;;3.35;1.20;;;;;;;30.08;32.09;99012.06;4862971;29;20272;-94
2023/05/08 11:08:26;;;;;;;5.05;1.35;;;;;;;30.21;31.94;99018.31;4862755;29;20374;-94
2023/05/08 11:11:05;;;;;;;3.00;1.30;;;;;;;30.27;31.68;99012.06;4862827;29;20214;-94
2023/05/08 11:13:35;;;;;;;2.08;1.25;;;;;;;30.34;30.69;99012.91;4863111;29;20203;-94
2023/05/08 11:16:02;;;;;;;3.75;1.15;;;;;;;30.49;30.95;99003.72;4853989;29;20193;-94
2023/05/08 11:18:28;;;;;;;3.53;1.40;;;;;;;30.59;29.59;99004.13;4848057;29;20184;-94
2023/05/08 11:21:05;;;;;;;4.00;1.75;;;;;;;30.75;29.59;98999.09;4862742;29;20184;-96
2023/05/08 11:23:32;;;;;;;4.80;1.70;;;;;;;30.94;29.87;98997.41;4862765;29;20644;-94
2023/05/08 11:26:03;;;;;;;3.38;1.75;;;;;;;30.89;29.75;98998.03;4862767;29;20251;-93
2023/05/08 11:28:37;;;;;;;5.50;1.98;;;;;;;30.97;29.54;98995.09;4862664;29;20203;-94
2023/05/08 11:31:04;;;;;;;2.72;1.58;;;;;;;31.05;29.86;98988.63;4862553;29;20622;-94
2023/05/08 11:33:31;;;;;;;4.03;1.67;;;;;;;31.21;30.03;98992.72;4862706;29;20183;-95
2023/05/08 11:36:12;;;;;;;3.53;1.95;;;;;;;31.33;30.10;98980.13;4862672;29;20180;-94
2023/05/08 11:39:06;;;;;;;3.95;2.22;;;;;;;31.24;30.66;98979.53;4862708;29;20180;-94
2023/05/08 11:41:32;;;;;;;8.68;5.03;;;;;;;31.27;30.53;98986.41;4862817;29;20225;-93